Terminal Aerodrome Forecast
Issued by NWS

Home | Current Version | Previous Version | Text Only | Print | Product List | Glossary Off
Versions: 1 2 3 4 5 6 7 8 9 10 11 12 13 14 15 16 17 18 19 20 21

000
FTUS43 KBIS 221120
TAFJMS
TAF
KJMS 221120Z 2212/2312 24005KT P6SM FEW200
     FM222200 27012KT P6SM FEW060
     FM230000 33010KT P6SM FEW060
     FM230200 04011G19KT P6SM FEW070 SCT090=

USA.gov is the U.S. government's official web portal to all federal, state and local government web resources and services.